Time;durP1;ratioP1;P1;durP2;ratioP2;P2;SDS_P1;SDS_P2;PMS_P1;PMS_P2;Temp;Humidity;BMP_temperature;BMP_pressure;BME280_temperature;BME280_humidity;BME280_pressure;Samples;Min_cycle;Max_cycle;Signal;HPM_P1;HPM_P2
2021/06/04 00:00:34;;;;;;;2.57;1.43;;;28.50;99.90;;;;;;5018641;28;20308;-96
2021/06/04 00:03:08;;;;;;;3.27;1.43;;;28.80;99.90;;;;;;5035548;28;20228;-96
2021/06/04 00:05:42;;;;;;;4.07;1.60;;;28.60;99.90;;;;;;5035945;28;20308;-95
2021/06/04 00:08:13;;;;;;;2.63;1.50;;;28.60;99.90;;;;;;5035973;28;20585;-95
2021/06/04 00:10:46;;;;;;;3.00;1.40;;;29.00;99.90;;;;;;5041496;28;20739;-95
2021/06/04 00:13:22;;;;;;;2.13;1.60;;;29.50;99.90;;;;;;5056810;28;20220;-95
2021/06/04 00:15:57;;;;;;;3.70;1.53;;;29.40;99.90;;;;;;5048429;28;20240;-95
2021/06/04 00:18:28;;;;;;;1.63;1.10;;;29.30;99.90;;;;;;5035434;28;20235;-95
2021/06/04 00:20:59;;;;;;;2.63;1.60;;;29.00;99.90;;;;;;5035573;28;20231;-96
2021/06/04 00:23:30;;;;;;;3.67;1.70;;;28.20;99.90;;;;;;5016956;28;20719;-96
2021/06/04 00:26:02;;;;;;;2.10;1.40;;;28.10;99.90;;;;;;5036507;28;20212;-95
2021/06/04 00:28:33;;;;;;;3.17;1.50;;;28.20;99.90;;;;;;5037469;28;20255;-95
2021/06/04 00:31:07;;;;;;;4.23;1.67;;;28.50;99.90;;;;;;5035998;28;20216;-96
2021/06/04 00:33:37;;;;;;;4.60;1.77;;;28.40;99.90;;;;;;5035535;28;20233;-95
2021/06/04 00:36:09;;;;;;;1.50;1.00;;;28.80;99.90;;;;;;5035275;28;20252;-94
2021/06/04 00:38:41;;;;;;;1.40;1.07;;;29.00;99.90;;;;;;5036421;28;20641;-95
2021/06/04 00:41:19;;;;;;;2.33;1.07;;;28.70;99.90;;;;;;5035706;28;20205;-96
2021/06/04 00:43:49;;;;;;;1.50;0.97;;;29.10;99.90;;;;;;5018678;28;20235;-95
2021/06/04 00:46:22;;;;;;;4.20;1.00;;;29.10;99.90;;;;;;5042504;28;20293;-95
2021/06/04 00:48:55;;;;;;;4.60;1.50;;;29.10;99.90;;;;;;5024905;28;20201;-93
2021/06/04 00:51:30;;;;;;;2.43;1.20;;;29.50;99.90;;;;;;5027555;28;20262;-96
2021/06/04 00:54:02;;;;;;;2.13;1.00;;;29.70;99.90;;;;;;4995374;28;20361;-93
2021/06/04 00:56:33;;;;;;;2.50;1.10;;;29.50;99.90;;;;;;5035890;28;20383;-95
2021/06/04 00:59:06;;;;;;;3.87;1.30;;;29.40;99.90;;;;;;5036623;28;20293;-96
2021/06/04 01:01:40;;;;;;;1.40;1.20;;;29.50;99.90;;;;;;5036249;28;20287;-96
2021/06/04 01:04:13;;;;;;;5.20;1.50;;;29.90;99.90;;;;;;5037410;28;20243;-96
2021/06/04 01:06:53;;;;;;;2.17;1.20;;;30.30;99.90;;;;;;5041436;28;20201;-94
2021/06/04 01:09:34;;;;;;;1.77;1.00;;;30.60;99.90;;;;;;5033470;28;20213;-94
2021/06/04 01:12:41;;;;;;;2.53;0.90;;;30.30;99.90;;;;;;5022867;28;20208;-94
2021/06/04 01:15:21;;;;;;;1.53;0.90;;;30.30;99.90;;;;;;5019448;28;20224;-96
2021/06/04 01:18:01;;;;;;;4.10;1.20;;;30.30;99.90;;;;;;5016746;28;20300;-95
2021/06/04 01:20:35;;;;;;;2.10;0.87;;;30.20;99.90;;;;;;5016910;28;20235;-95
2021/06/04 01:23:39;;;;;;;2.67;1.30;;;30.20;99.90;;;;;;5015933;28;20285;-95
2021/06/04 01:26:14;;;;;;;1.80;0.93;;;30.20;99.90;;;;;;5020317;28;20710;-95
2021/06/04 01:28:48;;;;;;;4.23;1.13;;;30.60;99.90;;;;;;5036154;28;20248;-95
2021/06/04 01:31:25;;;;;;;2.00;1.20;;;30.40;99.90;;;;;;5019426;28;20751;-94
2021/06/04 01:34:02;;;;;;;4.63;1.87;;;30.50;99.90;;;;;;5019574;28;20213;-95
2021/06/04 01:36:41;;;;;;;1.43;0.90;;;30.60;99.90;;;;;;5019296;28;20271;-95
2021/06/04 01:39:17;;;;;;;3.10;1.03;;;30.30;99.90;;;;;;5019505;28;20256;-96
2021/06/04 01:41:51;;;;;;;2.83;1.20;;;30.30;99.90;;;;;;5035660;28;20702;-91
2021/06/04 01:44:28;;;;;;;2.80;1.00;;;30.30;99.90;;;;;;5040004;28;20583;-96
2021/06/04 01:47:08;;;;;;;2.47;1.10;;;30.60;99.90;;;;;;5044627;28;20232;-95
2021/06/04 01:49:42;;;;;;;2.40;1.10;;;30.50;99.90;;;;;;5039011;28;20209;-96
2021/06/04 01:52:17;;;;;;;1.43;0.93;;;30.20;99.90;;;;;;5038569;28;20235;-95
2021/06/04 01:54:51;;;;;;;1.07;0.90;;;30.00;99.90;;;;;;5051784;28;20299;-95
2021/06/04 01:57:27;;;;;;;2.47;1.10;;;29.50;99.90;;;;;;5040497;28;20241;-95
2021/06/04 01:59:59;;;;;;;1.50;0.83;;;29.70;99.90;;;;;;5034956;28;20201;-96
2021/06/04 02:02:33;;;;;;;1.80;0.90;;;29.80;99.90;;;;;;5051514;28;20212;-96
2021/06/04 02:05:09;;;;;;;1.90;0.90;;;29.80;99.90;;;;;;5049476;28;20190;-96
2021/06/04 02:07:39;;;;;;;2.27;0.90;;;29.40;99.90;;;;;;5040843;28;20224;-94
2021/06/04 02:10:16;;;;;;;2.23;0.90;;;28.80;99.90;;;;;;5031010;28;20234;-96
2021/06/04 02:12:51;;;;;;;1.90;0.70;;;28.50;99.90;;;;;;5041698;28;20239;-95
2021/06/04 02:15:27;;;;;;;2.80;0.90;;;28.30;99.90;;;;;;5035157;28;20205;-94
2021/06/04 02:18:02;;;;;;;1.90;0.87;;;27.80;99.90;;;;;;5039931;28;20295;-94
2021/06/04 02:20:35;;;;;;;2.40;0.70;;;27.90;99.90;;;;;;5038385;28;20291;-93
2021/06/04 02:23:15;;;;;;;3.30;0.70;;;27.60;99.90;;;;;;5039680;28;20642;-94
2021/06/04 02:25:53;;;;;;;1.70;0.63;;;27.50;99.90;;;;;;5044320;28;20213;-95
2021/06/04 02:28:31;;;;;;;1.23;0.50;;;27.10;99.90;;;;;;5047064;28;20212;-94
2021/06/04 02:31:11;;;;;;;2.87;0.80;;;27.00;99.90;;;;;;5042589;28;20216;-93
2021/06/04 02:33:44;;;;;;;1.53;0.50;;;25.70;99.90;;;;;;5042410;28;20592;-94
2021/06/04 02:36:17;;;;;;;2.00;0.80;;;25.00;99.90;;;;;;5039371;28;20272;-93
2021/06/04 02:38:51;;;;;;;1.93;0.67;;;24.20;99.90;;;;;;5038118;28;20231;-93
2021/06/04 02:41:27;;;;;;;1.73;0.70;;;23.60;99.90;;;;;;5036538;28;20229;-93
2021/06/04 02:44:04;;;;;;;1.87;0.73;;;23.00;99.90;;;;;;5037972;28;20289;-94
2021/06/04 02:46:38;;;;;;;1.20;0.80;;;22.70;99.90;;;;;;5029990;28;20209;-94
2021/06/04 02:49:12;;;;;;;1.23;0.60;;;22.40;99.90;;;;;;5033412;28;20287;-93
2021/06/04 02:51:54;;;;;;;1.67;0.80;;;22.20;99.90;;;;;;5033286;28;20287;-93
2021/06/04 02:54:28;;;;;;;2.90;0.80;;;22.10;99.90;;;;;;5033076;28;20263;-93
2021/06/04 02:57:03;;;;;;;1.93;0.70;;;22.00;99.90;;;;;;5029397;28;20316;-95
2021/06/04 02:59:39;;;;;;;1.43;0.73;;;21.90;99.90;;;;;;5037467;28;20228;-94
2021/06/04 03:02:13;;;;;;;3.13;0.80;;;21.70;99.90;;;;;;5018442;28;20287;-94
2021/06/04 03:04:47;;;;;;;0.80;0.60;;;21.60;99.90;;;;;;5032767;28;20236;-94
2021/06/04 03:07:23;;;;;;;4.33;0.70;;;21.50;99.90;;;;;;5043808;28;20270;-94
2021/06/04 03:09:56;;;;;;;7.80;1.10;;;21.50;99.90;;;;;;5036267;28;20243;-96
2021/06/04 03:12:32;;;;;;;1.63;0.60;;;21.30;99.90;;;;;;5023282;28;20237;-95
2021/06/04 03:15:09;;;;;;;3.47;0.93;;;21.20;99.90;;;;;;5037728;28;20266;-95
2021/06/04 03:17:39;;;;;;;2.37;0.70;;;21.20;99.90;;;;;;5021565;28;20256;-96
2021/06/04 03:20:13;;;;;;;5.47;1.13;;;21.10;99.90;;;;;;5018608;28;20690;-95
2021/06/04 03:22:45;;;;;;;2.20;0.70;;;21.10;99.90;;;;;;5036260;28;20247;-95
2021/06/04 03:25:20;;;;;;;4.73;1.10;;;21.00;99.90;;;;;;5037231;28;20710;-93
2021/06/04 03:27:52;;;;;;;3.00;1.00;;;20.80;99.90;;;;;;5037599;28;20291;-91
2021/06/04 03:30:28;;;;;;;4.50;1.03;;;20.80;99.90;;;;;;5026785;28;20647;-95
2021/06/04 03:32:59;;;;;;;3.30;0.80;;;20.60;99.90;;;;;;5017773;28;20319;-95
2021/06/04 03:35:31;;;;;;;2.53;1.00;;;20.50;99.90;;;;;;5034292;28;20288;-95
2021/06/04 03:38:02;;;;;;;1.50;0.80;;;20.50;99.90;;;;;;5036249;28;20224;-95
2021/06/04 03:40:34;;;;;;;1.33;0.70;;;20.40;99.90;;;;;;5030185;28;20212;-94
2021/06/04 03:43:08;;;;;;;2.10;0.93;;;20.30;99.90;;;;;;5037395;28;20660;-94
2021/06/04 03:45:44;;;;;;;2.43;1.00;;;20.20;99.90;;;;;;5023257;28;20209;-94
2021/06/04 03:48:17;;;;;;;2.63;1.00;;;20.20;99.90;;;;;;5022062;28;20671;-94
2021/06/04 03:50:52;;;;;;;4.23;0.90;;;20.20;99.90;;;;;;5037841;28;20205;-93
2021/06/04 03:53:24;;;;;;;4.83;1.13;;;20.10;99.90;;;;;;5055962;28;20196;-94
2021/06/04 03:55:55;;;;;;;4.23;1.10;;;20.10;99.90;;;;;;5041705;28;20190;-95
2021/06/04 03:58:28;;;;;;;5.00;1.03;;;20.00;99.90;;;;;;5055715;28;20187;-92
2021/06/04 04:01:06;;;;;;;2.00;1.10;;;19.90;99.90;;;;;;5056521;28;20204;-94
2021/06/04 04:03:38;;;;;;;2.37;0.83;;;19.80;99.90;;;;;;5057402;28;20204;-95
2021/06/04 04:06:08;;;;;;;3.17;0.97;;;19.70;99.90;;;;;;5051516;28;20217;-95
2021/06/04 04:08:39;;;;;;;4.17;1.33;;;19.60;99.90;;;;;;5037200;28;20216;-95
2021/06/04 04:11:10;;;;;;;3.90;1.40;;;19.40;99.90;;;;;;5038798;28;20217;-94
2021/06/04 04:13:43;;;;;;;2.93;1.00;;;19.30;99.90;;;;;;5041005;28;20201;-95
2021/06/04 04:16:15;;;;;;;5.87;1.23;;;19.00;99.90;;;;;;5022309;28;20214;-96
2021/06/04 04:18:45;;;;;;;2.90;1.20;;;18.90;99.90;;;;;;5028469;28;20204;-94
2021/06/04 04:21:17;;;;;;;9.10;1.47;;;18.70;99.90;;;;;;5040755;28;20659;-95
2021/06/04 04:23:51;;;;;;;3.67;0.87;;;18.70;99.90;;;;;;5052744;28;20217;-94
2021/06/04 04:26:26;;;;;;;4.30;1.00;;;18.50;99.90;;;;;;5050110;28;20194;-96
2021/06/04 04:28:58;;;;;;;4.33;1.20;;;18.50;99.90;;;;;;4698712;28;10000534;-88
2021/06/04 04:31:44;;;;;;;3.77;1.03;;;18.40;99.90;;;;;;5029943;28;20619;-87
2021/06/04 04:34:15;;;;;;;3.20;1.10;;;18.30;99.90;;;;;;5038145;28;20276;-88
2021/06/04 04:36:49;;;;;;;2.87;1.17;;;18.30;99.90;;;;;;5035457;28;20328;-87
2021/06/04 04:39:21;;;;;;;4.20;1.03;;;18.30;99.90;;;;;;5035285;28;20231;-88
2021/06/04 04:41:54;;;;;;;5.17;1.13;;;18.20;99.90;;;;;;5034363;28;20235;-87
2021/06/04 04:44:29;;;;;;;4.03;1.23;;;18.10;99.90;;;;;;5036308;28;20201;-90
2021/06/04 04:47:06;;;;;;;4.77;1.20;;;17.90;99.90;;;;;;5035114;28;20201;-88
2021/06/04 04:49:36;;;;;;;4.90;1.77;;;18.00;99.90;;;;;;5027090;28;20259;-91
2021/06/04 04:52:16;;;;;;;2.93;1.10;;;17.90;99.90;;;;;;5022615;28;20225;-89
2021/06/04 04:54:50;;;;;;;5.07;1.50;;;17.90;99.90;;;;;;5033305;28;20220;-90
2021/06/04 04:57:21;;;;;;;3.70;1.30;;;17.80;99.90;;;;;;5024998;28;20323;-91
2021/06/04 04:59:52;;;;;;;7.07;1.20;;;17.90;99.90;;;;;;5015680;28;20240;-91
2021/06/04 05:02:26;;;;;;;8.20;1.50;;;17.90;99.90;;;;;;5013250;28;20237;-92
2021/06/04 05:04:56;;;;;;;6.30;1.40;;;18.00;99.90;;;;;;5034504;28;20266;-90
2021/06/04 05:07:26;;;;;;;4.63;1.23;;;17.90;99.90;;;;;;5037320;28;20295;-91
2021/06/04 05:09:57;;;;;;;2.93;1.20;;;17.90;99.90;;;;;;5034113;28;20240;-92
2021/06/04 05:12:29;;;;;;;3.13;0.93;;;17.80;99.90;;;;;;5035395;28;20232;-90
2021/06/04 05:15:00;;;;;;;3.33;1.30;;;17.80;99.90;;;;;;5037765;28;20254;-91
2021/06/04 05:17:32;;;;;;;5.17;1.10;;;17.80;99.90;;;;;;5032552;28;20256;-92
2021/06/04 05:20:02;;;;;;;4.67;1.43;;;17.80;99.90;;;;;;5028855;28;20296;-92
2021/06/04 05:22:32;;;;;;;4.73;1.20;;;17.80;99.90;;;;;;5018080;28;20724;-92
2021/06/04 05:25:04;;;;;;;4.07;1.43;;;17.80;99.90;;;;;;5023426;28;20303;-92
2021/06/04 05:27:35;;;;;;;5.90;1.20;;;17.80;99.90;;;;;;5039045;28;20687;-92
2021/06/04 05:30:09;;;;;;;4.43;1.13;;;17.70;99.90;;;;;;5021917;28;20280;-92
2021/06/04 05:32:41;;;;;;;3.87;1.30;;;17.70;99.90;;;;;;5044723;28;20201;-91
2021/06/04 05:35:13;;;;;;;3.87;1.27;;;17.70;99.90;;;;;;5046296;28;20291;-91
2021/06/04 05:37:44;;;;;;;5.50;1.20;;;17.70;99.90;;;;;;5048196;28;20233;-92
2021/06/04 05:40:17;;;;;;;3.90;1.17;;;17.60;99.90;;;;;;5046774;28;20265;-92
2021/06/04 05:42:48;;;;;;;6.10;1.27;;;17.60;99.90;;;;;;5038410;28;20232;-92
2021/06/04 05:45:22;;;;;;;5.47;1.40;;;17.60;99.90;;;;;;5038331;28;20296;-92
2021/06/04 05:47:58;;;;;;;4.73;1.13;;;17.50;99.90;;;;;;5038870;28;20220;-92
2021/06/04 05:50:35;;;;;;;4.63;1.37;;;17.50;99.90;;;;;;5037396;28;20220;-92
2021/06/04 05:53:06;;;;;;;3.20;1.10;;;17.40;99.90;;;;;;5040544;28;20625;-92
2021/06/04 05:55:38;;;;;;;4.10;1.83;;;17.30;99.90;;;;;;5058349;28;20272;-92
2021/06/04 05:58:15;;;;;;;2.63;1.13;;;17.30;99.90;;;;;;5057245;28;20232;-91
2021/06/04 06:00:48;;;;;;;4.33;1.00;;;17.30;99.90;;;;;;5049722;28;20634;-92
2021/06/04 06:03:24;;;;;;;7.63;1.47;;;17.20;99.90;;;;;;5037347;28;20240;-91
2021/06/04 06:05:55;;;;;;;5.53;1.30;;;17.20;99.90;;;;;;5037769;28;20235;-91
2021/06/04 06:08:27;;;;;;;3.77;1.30;;;17.10;99.90;;;;;;5020534;28;20292;-92
2021/06/04 06:10:58;;;;;;;4.43;1.17;;;17.00;99.90;;;;;;5036139;28;20209;-92
2021/06/04 06:13:29;;;;;;;5.87;1.30;;;16.90;99.90;;;;;;5037653;28;20300;-93
2021/06/04 06:16:02;;;;;;;5.93;1.33;;;16.80;99.90;;;;;;5037344;28;20632;-92
2021/06/04 06:18:35;;;;;;;6.37;1.53;;;16.70;99.90;;;;;;5035760;28;20271;-91
2021/06/04 06:21:06;;;;;;;4.43;1.30;;;16.60;99.90;;;;;;5003627;28;20726;-92
2021/06/04 06:23:38;;;;;;;5.37;1.40;;;16.60;99.90;;;;;;5019261;28;20202;-92
2021/06/04 06:26:12;;;;;;;4.23;1.07;;;16.50;99.90;;;;;;5020311;28;20241;-91
2021/06/04 06:28:43;;;;;;;3.73;1.23;;;16.40;99.90;;;;;;5036792;28;20236;-93
2021/06/04 06:31:17;;;;;;;3.40;1.20;;;16.30;99.90;;;;;;5036546;28;20302;-92
2021/06/04 06:33:52;;;;;;;5.00;1.03;;;16.30;99.90;;;;;;5037039;28;20205;-93
2021/06/04 06:36:27;;;;;;;6.27;1.40;;;16.20;99.90;;;;;;5037512;28;20667;-93
2021/06/04 06:38:59;;;;;;;3.87;1.10;;;16.20;99.90;;;;;;5009920;28;20710;-93
2021/06/04 06:41:31;;;;;;;4.60;1.10;;;16.10;99.90;;;;;;5016758;28;20607;-93
2021/06/04 06:44:02;;;;;;;6.77;1.43;;;16.00;99.90;;;;;;5017864;28;20296;-93
2021/06/04 06:46:35;;;;;;;3.83;1.03;;;16.00;99.90;;;;;;5039510;28;20207;-93
2021/06/04 06:49:10;;;;;;;5.30;1.33;;;15.90;99.90;;;;;;5057898;28;20233;-94
2021/06/04 06:51:41;;;;;;;5.67;1.30;;;15.90;99.90;;;;;;5056502;28;20224;-93
2021/06/04 06:54:15;;;;;;;3.80;1.17;;;15.90;99.90;;;;;;5037357;28;20244;-92
2021/06/04 06:56:49;;;;;;;7.03;1.70;;;15.90;99.90;;;;;;5037726;28;20225;-92
2021/06/04 06:59:20;;;;;;;3.67;1.30;;;16.00;99.90;;;;;;5049022;28;20318;-92
2021/06/04 07:01:51;;;;;;;6.10;1.50;;;16.00;99.90;;;;;;5055657;28;20212;-94
2021/06/04 07:04:25;;;;;;;3.17;1.23;;;16.10;99.90;;;;;;4999292;28;20213;-93
2021/06/04 07:06:56;;;;;;;4.23;1.30;;;16.20;99.90;;;;;;5008578;28;20293;-93
2021/06/04 07:09:27;;;;;;;4.67;1.40;;;16.20;99.90;;;;;;5019197;28;20628;-93
2021/06/04 07:11:58;;;;;;;8.03;1.27;;;16.20;99.90;;;;;;5025036;28;20210;-93
2021/06/04 07:14:33;;;;;;;3.47;1.20;;;16.20;99.90;;;;;;5016921;28;20209;-93
2021/06/04 07:17:05;;;;;;;4.40;1.30;;;16.20;99.90;;;;;;5016306;28;20288;-93
2021/06/04 07:19:37;;;;;;;4.20;1.50;;;16.20;99.90;;;;;;5016958;28;20213;-94
2021/06/04 07:22:08;;;;;;;3.73;1.50;;;16.10;99.90;;;;;;5036378;28;20252;-93
2021/06/04 07:24:38;;;;;;;5.67;1.20;;;16.00;99.90;;;;;;5036223;28;20296;-93
2021/06/04 07:27:09;;;;;;;7.17;1.40;;;15.90;99.90;;;;;;5039367;28;20246;-92
2021/06/04 07:29:41;;;;;;;6.20;1.57;;;15.90;99.90;;;;;;5044778;28;20254;-94
2021/06/04 07:32:12;;;;;;;2.70;1.00;;;15.80;99.90;;;;;;5019092;28;20275;-92
2021/06/04 07:34:46;;;;;;;3.80;1.10;;;15.80;99.90;;;;;;5019214;28;20240;-92
2021/06/04 07:37:16;;;;;;;4.27;1.37;;;15.70;99.90;;;;;;5035875;28;20276;-92
2021/06/04 07:39:47;;;;;;;7.37;1.50;;;15.60;99.90;;;;;;5003540;28;20264;-92
2021/06/04 07:42:17;;;;;;;4.97;1.30;;;15.50;99.90;;;;;;4998947;28;20240;-92
2021/06/04 07:44:49;;;;;;;4.63;1.33;;;15.50;99.90;;;;;;5010211;28;20652;-92
2021/06/04 07:47:20;;;;;;;5.93;1.47;;;15.40;99.90;;;;;;5035758;28;20215;-93
2021/06/04 07:49:53;;;;;;;5.87;1.30;;;15.40;99.90;;;;;;5034989;28;20554;-93
2021/06/04 07:52:24;;;;;;;6.63;1.30;;;15.40;99.90;;;;;;5032951;28;20217;-92
2021/06/04 07:54:58;;;;;;;3.87;1.23;;;15.30;99.90;;;;;;5015723;28;20245;-92
2021/06/04 07:57:30;;;;;;;5.37;1.50;;;15.30;99.90;;;;;;5015940;28;20209;-93
2021/06/04 08:00:01;;;;;;;4.83;1.40;;;15.30;99.90;;;;;;5034717;28;20243;-92
2021/06/04 08:02:31;;;;;;;5.20;1.30;;;15.20;99.90;;;;;;5032998;28;20221;-93
2021/06/04 08:05:04;;;;;;;6.23;1.37;;;15.20;99.90;;;;;;5008910;28;20213;-92
2021/06/04 08:07:34;;;;;;;8.47;1.50;;;15.20;99.90;;;;;;5035593;28;20291;-92
2021/06/04 08:10:06;;;;;;;5.33;1.63;;;15.10;99.90;;;;;;5034954;28;20240;-93
2021/06/04 08:12:38;;;;;;;7.77;1.80;;;15.00;99.90;;;;;;5016316;28;20244;-93
2021/06/04 08:15:34;;;;;;;5.00;1.57;;;14.90;99.90;;;;;;5015524;28;20252;-92
2021/06/04 08:18:05;;;;;;;6.67;1.40;;;14.90;99.90;;;;;;5016429;28;20345;-93
2021/06/04 08:20:40;;;;;;;5.90;1.70;;;14.80;99.90;;;;;;4998621;28;20233;-93
2021/06/04 08:23:15;;;;;;;6.10;1.57;;;14.80;99.90;;;;;;5034832;28;20597;-93
2021/06/04 08:25:49;;;;;;;9.13;1.50;;;14.60;99.90;;;;;;5056426;28;20638;-92
2021/06/04 08:28:22;;;;;;;5.43;1.50;;;14.60;99.90;;;;;;5055479;28;20220;-92
2021/06/04 08:30:52;;;;;;;5.40;1.40;;;14.50;99.90;;;;;;5049653;28;20213;-93
2021/06/04 08:33:25;;;;;;;6.30;1.53;;;14.50;99.90;;;;;;5042945;28;20291;-92
2021/06/04 08:35:57;;;;;;;7.27;1.80;;;14.40;99.90;;;;;;5050557;28;20200;-92
2021/06/04 08:38:31;;;;;;;5.97;1.53;;;14.30;99.90;;;;;;5020863;28;20264;-92
2021/06/04 08:41:08;;;;;;;5.53;1.53;;;14.30;99.90;;;;;;5031658;28;20215;-92
2021/06/04 08:43:59;;;;;;;3.27;1.27;;;14.20;99.90;;;;;;5035833;28;20247;-92
2021/06/04 08:46:34;;;;;;;6.53;1.67;;;14.10;99.90;;;;;;5036249;28;20655;-92
2021/06/04 08:49:13;;;;;;;5.43;1.50;;;13.90;99.90;;;;;;5037660;28;20299;-92
2021/06/04 08:52:02;;;;;;;7.90;1.70;;;13.80;99.90;;;;;;5036987;28;20255;-92
2021/06/04 08:54:39;;;;;;;7.00;1.80;;;13.80;99.90;;;;;;5040393;28;20217;-92
2021/06/04 08:57:17;;;;;;;6.37;1.47;;;13.70;99.90;;;;;;5035254;28;20212;-92
2021/06/04 08:59:49;;;;;;;7.00;1.57;;;13.70;99.90;;;;;;5017410;28;20240;-90
2021/06/04 09:02:22;;;;;;;7.73;1.37;;;13.60;99.90;;;;;;5036670;28;20670;-90
2021/06/04 09:04:57;;;;;;;5.57;1.57;;;13.60;99.90;;;;;;5035841;28;20264;-90
2021/06/04 09:07:34;;;;;;;8.27;1.93;;;13.60;99.90;;;;;;5049335;28;20211;-91
2021/06/04 09:10:12;;;;;;;5.30;1.50;;;13.50;99.90;;;;;;5055325;28;20228;-94
2021/06/04 09:12:49;;;;;;;5.60;1.73;;;13.50;99.90;;;;;;5056008;28;20205;-92
2021/06/04 09:15:25;;;;;;;7.77;1.73;;;13.40;99.90;;;;;;5030832;28;20213;-92
2021/06/04 09:18:03;;;;;;;6.33;2.23;;;13.30;99.90;;;;;;5040956;28;20260;-91
2021/06/04 09:20:42;;;;;;;11.13;1.83;;;13.30;99.90;;;;;;5055246;28;20248;-93
2021/06/04 09:23:19;;;;;;;5.50;1.67;;;13.30;99.90;;;;;;5056460;28;20196;-93
2021/06/04 09:25:50;;;;;;;8.43;1.50;;;13.30;99.90;;;;;;5036246;28;20224;-93
2021/06/04 09:28:28;;;;;;;4.87;1.77;;;13.40;99.90;;;;;;5036720;28;20209;-91
2021/06/04 09:31:00;;;;;;;7.17;1.70;;;13.50;99.90;;;;;;5034840;28;20194;-92
2021/06/04 09:33:34;;;;;;;6.63;1.60;;;13.50;99.90;;;;;;5035648;28;20225;-91
2021/06/04 09:36:10;;;;;;;7.40;1.50;;;13.60;99.90;;;;;;5017162;28;20209;-92
2021/06/04 09:38:45;;;;;;;7.57;1.90;;;13.70;99.90;;;;;;5015874;28;20264;-92
2021/06/04 09:41:35;;;;;;;5.87;1.57;;;13.90;99.90;;;;;;5015894;28;20268;-92
2021/06/04 09:44:10;;;;;;;7.53;1.57;;;13.90;99.90;;;;;;5032341;28;20236;-92
2021/06/04 09:46:52;;;;;;;8.00;1.70;;;13.90;99.90;;;;;;5035256;28;20216;-92
2021/06/04 09:49:48;;;;;;;6.37;2.00;;;13.90;99.90;;;;;;5035350;28;20208;-92
2021/06/04 09:52:30;;;;;;;5.27;1.30;;;13.90;99.90;;;;;;5018571;28;20206;-92
2021/06/04 09:55:21;;;;;;;6.20;1.60;;;13.90;99.90;;;;;;5018709;28;20217;-93
2021/06/04 09:58:22;;;;;;;6.23;1.70;;;13.80;99.90;;;;;;5018341;28;20240;-92
2021/06/04 10:01:11;;;;;;;5.27;1.60;;;13.80;99.90;;;;;;5018290;28;20291;-92
2021/06/04 10:03:54;;;;;;;4.97;1.53;;;13.90;99.90;;;;;;5018170;28;20710;-93
2021/06/04 10:06:44;;;;;;;6.23;1.50;;;13.90;99.90;;;;;;5018111;28;20244;-92
2021/06/04 10:09:28;;;;;;;7.03;2.00;;;13.90;99.90;;;;;;5015063;28;20281;-93
2021/06/04 10:12:04;;;;;;;9.27;1.93;;;13.80;99.90;;;;;;5032230;28;20268;-93
2021/06/04 10:14:51;;;;;;;5.23;1.40;;;13.90;99.90;;;;;;5037832;28;20541;-92
2021/06/04 10:17:46;;;;;;;9.23;1.53;;;13.90;99.90;;;;;;5030688;28;20702;-92
2021/06/04 10:20:30;;;;;;;6.27;1.50;;;14.00;99.90;;;;;;5017005;28;20234;-92
2021/06/04 10:23:11;;;;;;;5.17;1.70;;;14.00;99.90;;;;;;5017862;28;20217;-92
2021/06/04 10:25:48;;;;;;;6.67;1.53;;;14.00;99.90;;;;;;5025768;28;20217;-92
2021/06/04 10:28:43;;;;;;;9.07;1.40;;;14.00;99.90;;;;;;5017566;28;20210;-92
2021/06/04 10:31:50;;;;;;;8.27;2.20;;;14.00;99.90;;;;;;5017384;28;20237;-92
2021/06/04 10:34:59;;;;;;;6.27;1.60;;;14.00;99.90;;;;;;4957806;28;20211;-92
2021/06/04 10:37:37;;;;;;;7.00;1.57;;;14.00;99.90;;;;;;4996757;28;20295;-91
2021/06/04 10:40:17;;;;;;;8.20;1.70;;;13.90;99.90;;;;;;5017351;28;20595;-92
2021/06/04 10:43:01;;;;;;;7.60;1.43;;;14.00;99.90;;;;;;5017988;28;20231;-92
2021/06/04 10:45:38;;;;;;;6.93;1.83;;;13.90;99.90;;;;;;5017573;28;20301;-92
2021/06/04 10:48:28;;;;;;;6.93;2.07;;;13.90;99.90;;;;;;5017760;28;20283;-92
2021/06/04 10:51:09;;;;;;;8.43;2.17;;;13.90;99.90;;;;;;5032359;28;20193;-92
2021/06/04 10:53:49;;;;;;;3.13;1.20;;;13.90;99.90;;;;;;5033944;28;20217;-91
2021/06/04 10:56:27;;;;;;;5.80;1.40;;;13.90;99.90;;;;;;5032430;28;20216;-92
2021/06/04 10:59:04;;;;;;;2.97;1.00;;;13.90;99.90;;;;;;5043941;28;20232;-93
2021/06/04 11:01:41;;;;;;;2.67;1.07;;;13.90;99.90;;;;;;5035565;28;20243;-92
2021/06/04 11:04:20;;;;;;;5.83;1.53;;;13.90;99.90;;;;;;5034883;28;20303;-92
2021/06/04 11:07:03;;;;;;;5.47;1.47;;;13.80;99.90;;;;;;5025404;28;20629;-92
2021/06/04 11:09:47;;;;;;;4.70;1.57;;;13.80;99.90;;;;;;5036514;28;20283;-92
2021/06/04 11:12:31;;;;;;;5.97;1.47;;;13.80;99.90;;;;;;5036946;28;20235;-93
2021/06/04 11:15:09;;;;;;;4.73;1.40;;;13.90;99.90;;;;;;5036491;28;20236;-92
2021/06/04 11:17:45;;;;;;;5.97;1.60;;;13.90;99.90;;;;;;5036316;28;20247;-92
2021/06/04 11:20:21;;;;;;;7.83;1.50;;;13.80;99.90;;;;;;5036090;28;20323;-92
2021/06/04 11:23:03;;;;;;;8.00;1.50;;;13.90;99.90;;;;;;5036557;28;20212;-92
2021/06/04 11:25:53;;;;;;;7.77;1.70;;;13.80;99.90;;;;;;5038526;28;20224;-92
2021/06/04 11:28:36;;;;;;;4.33;1.33;;;13.70;99.90;;;;;;5042675;28;20196;-93
2021/06/04 11:31:11;;;;;;;6.60;1.73;;;13.70;99.90;;;;;;5039603;28;20229;-93
2021/06/04 11:33:49;;;;;;;6.20;1.90;;;13.60;99.90;;;;;;5040018;28;20236;-92
2021/06/04 11:36:22;;;;;;;7.60;1.80;;;13.60;99.90;;;;;;5040701;28;20667;-92
2021/06/04 11:38:55;;;;;;;6.30;1.77;;;13.60;99.90;;;;;;5039286;28;20315;-92
2021/06/04 11:41:29;;;;;;;2.33;1.20;;;13.60;99.90;;;;;;5036648;28;20299;-92
2021/06/04 11:44:07;;;;;;;5.50;1.60;;;13.50;99.90;;;;;;5020294;28;20208;-92
2021/06/04 11:46:37;;;;;;;7.10;1.30;;;13.60;99.90;;;;;;5030973;28;20296;-91
2021/06/04 11:49:13;;;;;;;6.13;1.70;;;13.50;99.90;;;;;;5036537;28;20201;-92
2021/06/04 11:51:51;;;;;;;7.80;1.60;;;13.50;99.90;;;;;;5035051;28;20779;-92
2021/06/04 11:54:39;;;;;;;7.27;1.80;;;13.50;99.90;;;;;;5035357;28;20259;-92
2021/06/04 11:57:51;;;;;;;6.00;1.60;;;13.50;99.90;;;;;;5035835;28;20262;-92
2021/06/04 12:00:40;;;;;;;9.47;2.27;;;13.50;99.90;;;;;;5030392;28;20250;-91
2021/06/04 12:03:30;;;;;;;7.93;1.47;;;13.50;99.90;;;;;;5035452;28;20268;-92
2021/06/04 12:06:48;;;;;;;8.97;1.67;;;13.50;99.90;;;;;;5035345;28;20245;-92
2021/06/04 12:09:46;;;;;;;5.27;1.50;;;13.50;99.90;;;;;;5035245;28;20217;-92
2021/06/04 12:12:51;;;;;;;5.33;1.77;;;13.50;99.90;;;;;;5030481;28;20259;-92
2021/06/04 12:15:56;;;;;;;5.97;1.20;;;13.50;99.90;;;;;;5017546;28;20216;-92
2021/06/04 12:18:58;;;;;;;7.17;2.07;;;13.60;99.90;;;;;;5018200;28;20216;-93
2021/06/04 12:22:08;;;;;;;6.17;1.23;;;13.60;99.90;;;;;;5034702;28;20225;-93
2021/06/04 12:25:05;;;;;;;6.33;1.50;;;13.60;99.90;;;;;;5034982;28;20211;-93
2021/06/04 12:27:48;;;;;;;9.70;2.20;;;13.60;99.90;;;;;;5034804;28;20312;-92
2021/06/04 12:30:50;;;;;;;5.97;1.40;;;13.60;99.90;;;;;;5034802;28;20641;-92
2021/06/04 12:33:50;;;;;;;5.67;1.70;;;13.60;99.90;;;;;;5035706;28;20243;-92
2021/06/04 12:37:01;;;;;;;5.83;1.47;;;13.60;99.90;;;;;;5034863;28;20288;-92
2021/06/04 12:39:42;;;;;;;8.03;1.57;;;13.60;99.90;;;;;;5034995;28;20328;-92
2021/06/04 12:42:28;;;;;;;7.87;1.10;;;13.60;99.90;;;;;;5035229;28;20292;-92
2021/06/04 12:45:02;;;;;;;5.27;1.30;;;13.50;99.90;;;;;;5034955;28;20275;-92
2021/06/04 12:47:40;;;;;;;10.17;1.87;;;13.40;99.90;;;;;;5031768;28;20253;-92
2021/06/04 12:50:16;;;;;;;8.00;1.30;;;13.40;99.90;;;;;;5036626;28;20197;-91
2021/06/04 12:52:48;;;;;;;9.57;2.00;;;13.50;99.90;;;;;;5038785;28;20255;-92
2021/06/04 12:55:27;;;;;;;5.00;1.47;;;13.40;99.90;;;;;;5021175;28;20236;-92
2021/06/04 12:58:15;;;;;;;5.30;1.50;;;13.50;99.90;;;;;;5040344;28;20213;-92
2021/06/04 13:00:46;;;;;;;5.10;1.40;;;13.50;99.90;;;;;;5044178;28;20224;-92
2021/06/04 13:03:22;;;;;;;6.43;1.67;;;13.50;99.90;;;;;;5045177;28;20220;-92
2021/06/04 13:05:55;;;;;;;8.50;1.60;;;13.60;99.90;;;;;;5036023;28;20240;-91
2021/06/04 13:08:33;;;;;;;6.60;1.33;;;13.70;99.90;;;;;;5064856;28;20216;-92
2021/06/04 13:11:07;;;;;;;6.57;1.40;;;13.70;99.90;;;;;;5054128;28;20218;-92
2021/06/04 13:13:43;;;;;;;4.07;1.20;;;13.70;99.90;;;;;;5052375;28;20208;-92
2021/06/04 13:16:20;;;;;;;4.97;1.50;;;13.80;99.90;;;;;;5034873;28;20212;-92
2021/06/04 13:18:52;;;;;;;7.73;1.47;;;13.80;99.90;;;;;;5035042;28;20244;-92
2021/06/04 13:21:24;;;;;;;7.80;1.30;;;13.80;99.90;;;;;;5033853;28;20308;-92
2021/06/04 13:24:02;;;;;;;6.17;1.17;;;13.90;99.90;;;;;;5034429;28;20291;-92
2021/06/04 13:26:38;;;;;;;4.10;1.47;;;13.80;99.90;;;;;;5035736;28;20263;-92
2021/06/04 13:29:19;;;;;;;7.33;1.43;;;13.80;99.90;;;;;;5038830;28;20251;-92
2021/06/04 13:31:50;;;;;;;5.10;1.40;;;13.70;99.90;;;;;;5038410;28;20241;-91
2021/06/04 13:34:24;;;;;;;5.80;1.03;;;13.70;99.90;;;;;;5039023;28;20271;-92